createdAt,value
2018-09-20T00:01:22.321Z,56.92
2018-09-20T00:03:52.851Z,56.68
2018-09-20T00:06:23.263Z,57.28
2018-09-20T00:08:53.052Z,57.03
2018-09-20T00:11:23.222Z,56.93
2018-09-20T00:13:53.305Z,56.57
2018-09-20T00:16:23.399Z,56.43
2018-09-20T00:18:53.928Z,57.08
2018-09-20T00:21:23.807Z,56.95
2018-09-20T00:23:53.585Z,56.27
2018-09-20T00:26:24.009Z,56.82
2018-09-20T00:28:54.629Z,56.66
2018-09-20T00:31:25.057Z,56.93
2018-09-20T00:33:55.187Z,56.90
2018-09-20T00:36:25.156Z,56.89
2018-09-20T00:38:56.659Z,57.33
2018-09-20T00:41:27.329Z,57.79
2018-09-20T00:43:57.886Z,57.38
2018-09-20T00:46:28.416Z,58.15
2018-09-20T00:48:58.506Z,57.96
2018-09-20T00:51:29.156Z,57.67
2018-09-20T00:54:00.400Z,58.66
2018-09-20T00:56:31.113Z,58.30
2018-09-20T00:59:01.254Z,57.60
2018-09-20T01:01:32.145Z,57.52
2018-09-20T01:09:29.210Z,58.20
2018-09-20T01:11:59.469Z,58.50
2018-09-20T01:14:31.309Z,58.48
2018-09-20T01:17:01.901Z,58.29
2018-09-20T01:19:32.441Z,58.05
2018-09-20T01:22:02.881Z,58.53
2018-09-20T01:24:33.047Z,58.53
2018-09-20T01:27:03.317Z,58.22
2018-09-20T01:29:34.205Z,58.49
2018-09-20T01:32:04.647Z,58.68
2018-09-20T01:34:34.828Z,58.86
2018-09-20T01:37:05.211Z,58.37
2018-09-20T01:39:35.363Z,58.13
2018-09-20T01:42:05.662Z,58.55
2018-09-20T01:44:36.312Z,58.78
2018-09-20T01:47:07.495Z,59.18
2018-09-20T01:49:38.238Z,58.67
2018-09-20T01:52:08.557Z,58.72
2018-09-20T01:54:38.721Z,58.76
2018-09-20T01:57:09.562Z,58.92
2018-09-20T01:59:39.805Z,59.01
2018-09-20T02:02:10.553Z,59.52
2018-09-20T02:04:40.868Z,59.58
2018-09-20T02:07:12.015Z,59.78
2018-09-20T02:09:42.006Z,59.80
2018-09-20T02:12:13.509Z,59.98
2018-09-20T02:14:43.795Z,59.64
2018-09-20T02:17:14.035Z,60.05
2018-09-20T02:19:44.322Z,59.45
2018-09-20T02:22:15.096Z,60.01
2018-09-20T02:24:45.260Z,59.84
2018-09-20T02:27:15.794Z,59.58
2018-09-20T02:29:46.288Z,60.78
2018-09-20T02:32:17.324Z,60.40
2018-09-20T02:34:47.477Z,61.13
2018-09-20T02:37:17.613Z,60.95
2018-09-20T02:39:48.230Z,60.63
2018-09-20T02:42:18.656Z,61.18
2018-09-20T02:44:49.271Z,61.74
2018-09-20T02:47:20.183Z,61.33
2018-09-20T02:49:50.552Z,62.07
2018-09-20T02:52:22.053Z,62.21
2018-09-20T02:54:52.941Z,62.03
2018-09-20T02:57:22.982Z,61.70
2018-09-20T02:59:55.336Z,61.60
2018-09-20T03:02:25.652Z,61.92
2018-09-20T03:04:57.062Z,61.94
2018-09-20T03:07:27.325Z,62.29
2018-09-20T03:09:58.929Z,62.39
2018-09-20T03:12:29.285Z,62.15
2018-09-20T03:14:59.902Z,62.06
2018-09-20T03:17:31.700Z,62.16
2018-09-20T03:20:06.619Z,62.44
2018-09-20T03:22:38.785Z,62.69
2018-09-20T03:25:09.489Z,63.21
2018-09-20T03:27:39.965Z,62.94
2018-09-20T03:30:10.651Z,63.50
2018-09-20T03:32:41.907Z,63.15
2018-09-20T03:35:12.020Z,62.98
2018-09-20T03:37:42.271Z,63.07
2018-09-20T03:40:13.031Z,62.75
2018-09-20T03:42:43.528Z,63.25
2018-09-20T03:45:13.801Z,63.21
2018-09-20T03:47:44.684Z,63.39
2018-09-20T03:50:14.812Z,63.05
2018-09-20T03:52:45.661Z,62.96
2018-09-20T03:55:16.149Z,63.20
2018-09-20T03:57:46.457Z,62.89
2018-09-20T04:00:16.813Z,63.34
2018-09-20T04:02:48.040Z,63.45
2018-09-20T04:05:18.101Z,64.07
2018-09-20T04:07:48.733Z,64.22
2018-09-20T04:10:19.118Z,64.23
2018-09-20T04:12:49.862Z,64.60
2018-09-20T04:15:20.284Z,64.53
2018-09-20T04:17:51.154Z,65.78
2018-09-20T04:20:22.875Z,65.40
2018-09-20T04:22:53.302Z,64.36
2018-09-20T04:25:23.965Z,64.51
2018-09-20T04:27:54.494Z,65.20
2018-09-20T04:30:24.682Z,65.35
2018-09-20T04:32:55.079Z,65.11
2018-09-20T04:35:25.291Z,65.25
2018-09-20T04:37:56.546Z,64.99
2018-09-20T04:40:27.878Z,65.94
2018-09-20T04:42:58.766Z,66.35
2018-09-20T04:45:29.025Z,65.22
2018-09-20T04:47:59.341Z,65.17
2018-09-20T04:50:29.470Z,64.85
2018-09-20T04:52:59.573Z,64.75
2018-09-20T04:55:29.886Z,64.83
2018-09-20T04:58:00.205Z,65.09
2018-09-20T05:00:30.068Z,65.05
2018-09-20T05:03:00.347Z,65.21
2018-09-20T05:05:32.535Z,65.20
2018-09-20T05:08:04.154Z,65.39
2018-09-20T05:10:34.543Z,64.72
2018-09-20T05:13:06.632Z,64.75
2018-09-20T05:15:36.628Z,65.46
2018-09-20T05:18:07.422Z,64.97
2018-09-20T05:20:37.609Z,65.46
2018-09-20T05:23:07.663Z,65.19
2018-09-20T05:25:37.815Z,64.35
2018-09-20T05:28:08.100Z,64.83
2018-09-20T05:30:39.136Z,64.75
2018-09-20T05:33:09.259Z,64.87
2018-09-20T05:35:40.162Z,64.86
2018-09-20T05:38:12.156Z,64.33
2018-09-20T05:40:43.189Z,64.45
2018-09-20T05:43:14.619Z,63.87
2018-09-20T05:45:44.663Z,63.99
2018-09-20T05:48:15.343Z,63.94
2018-09-20T05:50:46.197Z,62.86
2018-09-20T05:53:16.932Z,62.64
2018-09-20T05:55:48.092Z,62.51
2018-09-20T05:58:22.695Z,62.99
2018-09-20T06:00:53.487Z,62.37
2018-09-20T06:03:25.333Z,61.95
2018-09-20T06:05:57.818Z,61.49
2018-09-20T06:08:28.510Z,61.30
2018-09-20T06:10:59.290Z,60.08
2018-09-20T06:13:29.162Z,60.12
2018-09-20T06:15:59.291Z,60.13
2018-09-20T06:18:29.365Z,59.65
2018-09-20T06:20:59.417Z,59.17
2018-09-20T06:23:30.103Z,59.08
2018-09-20T06:26:00.048Z,59.33
2018-09-20T06:28:31.340Z,59.01
2018-09-20T06:31:02.355Z,58.93
2018-09-20T06:33:32.732Z,58.97
2018-09-20T06:36:03.366Z,59.21
2018-09-20T06:38:34.006Z,59.49
2018-09-20T06:41:05.465Z,59.40
2018-09-20T06:43:35.973Z,59.53
2018-09-20T06:46:07.676Z,59.12
2018-09-20T06:48:40.650Z,58.94
2018-09-20T06:51:13.010Z,59.28
2018-09-20T06:53:43.287Z,59.03
2018-09-20T06:56:14.179Z,58.75
2018-09-20T06:58:44.587Z,58.29
2018-09-20T07:01:15.473Z,58.39
2018-09-20T07:03:47.977Z,56.97
2018-09-20T07:06:21.002Z,56.44
2018-09-20T07:08:51.759Z,56.54
2018-09-20T07:11:22.894Z,56.91
2018-09-20T07:13:53.849Z,57.01
2018-09-20T07:16:24.460Z,56.96
2018-09-20T07:18:56.590Z,56.69
2018-09-20T07:21:29.327Z,56.77
2018-09-20T07:23:59.562Z,56.40
2018-09-20T07:26:30.705Z,55.82
2018-09-20T07:29:02.756Z,55.27
2018-09-20T07:31:36.089Z,54.68
2018-09-20T07:34:07.415Z,53.59
2018-09-20T07:36:37.483Z,53.48
2018-09-20T07:39:11.755Z,53.31
2018-09-20T07:41:43.482Z,52.40
2018-09-20T07:44:13.331Z,52.24
2018-09-20T07:46:47.222Z,51.80
2018-09-20T07:49:20.152Z,51.35
2018-09-20T07:51:50.931Z,50.59
2018-09-20T07:54:21.055Z,50.37
2018-09-20T07:56:52.098Z,50.10
2018-09-20T07:59:24.302Z,49.54
2018-09-20T08:01:55.375Z,50.14
2018-09-20T08:04:31.148Z,49.25
2018-09-20T08:07:05.082Z,49.73
2018-09-20T08:09:35.129Z,49.70
2018-09-20T08:12:05.688Z,49.97
2018-09-20T08:14:36.537Z,49.36
2018-09-20T08:17:18.706Z,49.47
2018-09-20T08:19:51.241Z,48.57
2018-09-20T08:22:25.062Z,49.03
2018-09-20T08:24:59.734Z,48.80
2018-09-20T08:27:31.547Z,48.31
2018-09-20T08:30:04.197Z,48.97
2018-09-20T08:32:34.980Z,47.89
2018-09-20T08:35:06.340Z,47.46
2018-09-20T08:37:36.298Z,47.67
2018-09-20T08:40:07.815Z,47.45
2018-09-20T08:42:42.879Z,48.15
2018-09-20T08:45:14.772Z,47.60
2018-09-20T08:47:45.022Z,48.79
2018-09-20T08:50:15.514Z,48.66
2018-09-20T08:52:45.873Z,47.82
2018-09-20T08:55:19.638Z,48.66
2018-09-20T08:57:53.646Z,47.50
2018-09-20T09:00:28.333Z,48.82
2018-09-20T09:03:07.812Z,49.13
2018-09-20T09:05:38.206Z,48.50
2018-09-20T09:08:13.564Z,48.31
2018-09-20T09:10:48.906Z,48.67
2018-09-20T09:13:19.756Z,48.41
2018-09-20T09:15:51.769Z,47.97
2018-09-20T09:18:24.561Z,47.49
2018-09-20T09:20:56.731Z,46.05
2018-09-20T09:23:29.668Z,46.01
2018-09-20T09:26:02.540Z,46.35
2018-09-20T09:28:35.378Z,46.07
2018-09-20T09:31:05.936Z,45.63
2018-09-20T09:33:36.936Z,45.37
2018-09-20T09:36:13.201Z,45.87
2018-09-20T09:38:43.562Z,45.71
2018-09-20T09:41:17.220Z,44.38
2018-09-20T09:43:50.209Z,45.53
2018-09-20T09:46:28.200Z,45.37
2018-09-20T09:48:58.734Z,44.38
2018-09-20T09:51:31.250Z,45.03
2018-09-20T09:54:02.446Z,45.08
2018-09-20T09:56:37.451Z,44.61
2018-09-20T09:59:10.987Z,44.28
2018-09-20T10:01:41.586Z,44.47
2018-09-20T10:04:14.165Z,43.97
2018-09-20T10:06:46.876Z,42.83
2018-09-20T10:09:18.714Z,43.24
2018-09-20T10:11:49.592Z,42.17
2018-09-20T10:14:20.501Z,41.42
2018-09-20T10:16:53.335Z,41.84
2018-09-20T10:19:29.010Z,42.29
2018-09-20T10:22:04.904Z,41.10
2018-09-20T10:24:37.695Z,41.20
2018-09-20T10:27:09.051Z,41.58
2018-09-20T10:29:40.451Z,40.76
2018-09-20T10:32:12.299Z,41.30
2018-09-20T10:34:45.442Z,41.12
2018-09-20T10:37:24.131Z,40.14
2018-09-20T10:39:55.446Z,41.71
2018-09-20T10:42:30.714Z,40.40
2018-09-20T10:45:01.749Z,41.06
2018-09-20T10:47:35.759Z,40.59
2018-09-20T10:50:06.730Z,41.12
2018-09-20T10:52:37.740Z,41.25
2018-09-20T10:55:08.780Z,40.15
2018-09-20T10:57:39.511Z,41.30
2018-09-20T11:00:10.794Z,42.79
2018-09-20T11:02:42.094Z,42.30
2018-09-20T11:05:13.530Z,42.40
2018-09-20T11:07:45.590Z,42.02
2018-09-20T11:10:16.732Z,43.09
2018-09-20T11:12:47.727Z,43.24
2018-09-20T11:15:18.853Z,42.47
2018-09-20T11:17:49.992Z,42.17
2018-09-20T11:20:21.472Z,40.70
2018-09-20T11:22:52.792Z,41.51
2018-09-20T11:25:26.519Z,40.96
2018-09-20T11:27:57.539Z,41.14
2018-09-20T11:30:29.062Z,40.73
2018-09-20T11:33:00.827Z,40.56
2018-09-20T11:35:32.176Z,39.87
2018-09-20T11:38:03.768Z,39.48
2018-09-20T11:40:36.216Z,39.43
2018-09-20T11:43:08.690Z,39.79
2018-09-20T11:45:39.731Z,39.00
2018-09-20T11:48:10.381Z,40.00
2018-09-20T11:50:40.447Z,39.31
2018-09-20T11:53:12.168Z,38.97
2018-09-20T11:55:42.217Z,38.15
2018-09-20T11:58:12.348Z,37.26
2018-09-20T12:00:42.565Z,38.17
2018-09-20T12:03:13.131Z,37.85
2018-09-20T12:05:43.623Z,36.80
2018-09-20T12:08:14.862Z,36.55
2018-09-20T12:10:45.474Z,37.15
2018-09-20T12:13:16.262Z,37.11
2018-09-20T12:15:46.549Z,36.66
2018-09-20T12:18:17.820Z,37.56
2018-09-20T12:20:47.903Z,35.97
2018-09-20T12:23:18.361Z,36.04
2018-09-20T12:25:50.076Z,36.62
2018-09-20T12:28:20.390Z,35.17
2018-09-20T12:30:50.735Z,35.64
2018-09-20T12:33:21.858Z,35.64
2018-09-20T12:35:52.817Z,35.51
2018-09-20T12:38:24.188Z,34.94
2018-09-20T12:40:56.949Z,34.12
2018-09-20T12:43:31.239Z,33.50
2018-09-20T12:46:08.181Z,33.81
2018-09-20T12:48:39.298Z,32.11
2018-09-20T12:51:11.253Z,31.94
2018-09-20T12:53:44.315Z,31.39
2018-09-20T12:56:14.407Z,32.01
2018-09-20T12:58:51.901Z,31.29
2018-09-20T13:01:23.430Z,31.49
2018-09-20T13:03:54.286Z,32.45
2018-09-20T13:06:24.429Z,30.48
2018-09-20T13:08:58.007Z,30.70
2018-09-20T13:11:32.585Z,30.98
2018-09-20T13:14:08.311Z,32.69
2018-09-20T13:16:41.589Z,33.31
2018-09-20T13:19:13.051Z,32.29
2018-09-20T13:21:44.015Z,32.35
2018-09-20T13:24:14.299Z,31.75
2018-09-20T13:26:46.258Z,31.88
2018-09-20T13:29:21.920Z,32.24
2018-09-20T13:31:58.118Z,31.33
2018-09-20T13:34:29.876Z,31.98
2018-09-20T13:37:01.089Z,31.61
2018-09-20T13:39:31.563Z,31.00
2018-09-20T13:42:05.046Z,30.88
2018-09-20T13:44:39.296Z,31.92
2018-09-20T13:47:11.051Z,31.21
2018-09-20T13:49:47.127Z,32.66
2018-09-20T13:52:17.759Z,31.88
2018-09-20T13:54:49.393Z,32.06
2018-09-20T13:57:21.764Z,31.06
2018-09-20T13:59:56.500Z,32.10
2018-09-20T14:02:32.420Z,31.99
2018-09-20T14:05:14.280Z,31.06
2018-09-20T14:07:52.435Z,31.65
2018-09-20T14:10:28.522Z,31.19
2018-09-20T14:13:11.092Z,30.64
2018-09-20T14:15:46.728Z,30.24
2018-09-20T14:18:23.445Z,30.81
2018-09-20T14:20:58.556Z,31.28
2018-09-20T14:23:33.222Z,31.06
2018-09-20T14:26:06.329Z,31.14
2018-09-20T14:28:46.712Z,31.56
2018-09-20T14:31:28.498Z,31.71
2018-09-20T14:34:11.919Z,31.90
2018-09-20T14:36:48.568Z,32.46
2018-09-20T14:39:24.348Z,31.87
2018-09-20T14:41:56.827Z,32.77
2018-09-20T14:44:34.887Z,32.45
2018-09-20T14:47:08.290Z,31.54
2018-09-20T14:49:43.379Z,32.75
2018-09-20T14:52:18.956Z,31.04
2018-09-20T14:54:51.637Z,31.77
2018-09-20T14:57:22.647Z,30.86
2018-09-20T14:59:53.842Z,32.28
2018-09-20T15:02:26.034Z,32.38
2018-09-20T15:04:56.764Z,31.73
2018-09-20T15:07:30.612Z,32.01
2018-09-20T15:10:02.366Z,31.50
2018-09-20T15:12:33.157Z,32.32
2018-09-20T15:15:04.265Z,32.41
2018-09-20T15:17:39.184Z,32.53
2018-09-20T15:20:12.491Z,32.60
2018-09-20T15:22:44.276Z,31.86
2018-09-20T15:25:14.559Z,32.61
2018-09-20T15:27:45.099Z,32.61
2018-09-20T15:30:16.264Z,32.48
2018-09-20T15:32:47.437Z,32.02
2018-09-20T15:35:18.802Z,32.10
2018-09-20T15:37:50.378Z,32.06
2018-09-20T15:40:21.500Z,32.54
2018-09-20T15:42:51.699Z,32.18
2018-09-20T15:45:23.831Z,33.84
2018-09-20T15:47:54.454Z,33.02
2018-09-20T15:50:26.279Z,33.06
2018-09-20T15:52:59.541Z,33.50
2018-09-20T15:55:37.252Z,34.04
2018-09-20T15:58:10.134Z,33.51
2018-09-20T16:00:45.579Z,33.52
2018-09-20T16:03:18.675Z,33.67
2018-09-20T16:05:54.759Z,34.58
2018-09-20T16:08:27.816Z,33.66
2018-09-20T16:11:01.379Z,33.30
2018-09-20T16:13:33.947Z,33.81
2018-09-20T16:16:08.592Z,34.95
2018-09-20T16:18:42.526Z,34.10
2018-09-20T16:21:16.984Z,34.92
2018-09-20T16:23:50.231Z,35.52
2018-09-20T16:26:26.480Z,35.87
2018-09-20T16:35:28.730Z,35.06
2018-09-20T16:38:12.011Z,37.13
2018-09-20T16:40:47.186Z,37.05
2018-09-20T16:43:24.353Z,37.40
2018-09-20T16:45:59.141Z,36.95
2018-09-20T16:48:30.749Z,37.62
2018-09-20T16:51:05.659Z,37.30
2018-09-20T16:53:36.882Z,37.31
2018-09-20T16:56:09.625Z,38.62
2018-09-20T16:58:45.625Z,38.58
2018-09-20T17:01:16.975Z,38.29
2018-09-20T17:03:49.104Z,38.37
2018-09-20T17:06:20.398Z,38.36
2018-09-20T17:08:52.047Z,38.57
2018-09-20T17:11:22.834Z,38.80
2018-09-20T17:13:52.791Z,39.57
2018-09-20T17:16:24.494Z,39.03
2018-09-20T17:18:54.977Z,40.11
2018-09-20T17:21:25.937Z,39.38
2018-09-20T17:23:56.279Z,39.78
2018-09-20T17:26:28.506Z,40.35
2018-09-20T17:29:00.439Z,40.74
2018-09-20T17:31:31.527Z,40.10
2018-09-20T17:34:06.469Z,41.11
2018-09-20T17:36:38.623Z,41.49
2018-09-20T17:39:13.436Z,41.53
2018-09-20T17:41:45.653Z,42.21
2018-09-20T17:44:16.690Z,42.88
2018-09-20T17:46:46.600Z,42.32
2018-09-20T17:49:20.807Z,43.00
2018-09-20T17:51:52.830Z,42.50
2018-09-20T17:54:27.037Z,44.05
2018-09-20T17:56:58.913Z,43.89
2018-09-20T17:59:29.825Z,44.87
2018-09-20T18:02:04.388Z,44.45
2018-09-20T18:04:38.391Z,44.67
2018-09-20T18:07:10.939Z,44.95
2018-09-20T18:09:45.358Z,45.36
2018-09-20T18:12:18.602Z,45.53
2018-09-20T18:14:49.747Z,46.56
2018-09-20T18:17:23.260Z,46.24
2018-09-20T18:19:55.072Z,46.81
2018-09-20T18:22:27.548Z,47.03
2018-09-20T18:25:00.980Z,47.52
2018-09-20T18:27:34.271Z,47.47
2018-09-20T18:30:05.548Z,47.27
2018-09-20T18:32:36.498Z,47.92
2018-09-20T18:35:09.689Z,47.62
2018-09-20T18:37:42.202Z,48.57
2018-09-20T18:40:26.871Z,48.93
2018-09-20T18:43:00.130Z,48.96
2018-09-20T18:45:34.711Z,48.72
2018-09-20T18:48:14.267Z,47.79
2018-09-20T18:50:47.226Z,48.84
2018-09-20T18:53:23.050Z,48.32
2018-09-20T18:56:00.779Z,48.10
2018-09-20T18:58:37.763Z,48.85
2018-09-20T19:01:11.829Z,48.65
2018-09-20T19:03:44.135Z,48.65
2018-09-20T19:06:19.549Z,48.41
2018-09-20T19:08:51.219Z,49.03
2018-09-20T19:11:27.784Z,48.90
2018-09-20T19:14:02.992Z,49.52
2018-09-20T19:16:35.937Z,49.59
2018-09-20T19:19:12.790Z,49.80
2018-09-20T19:21:44.254Z,50.48
2018-09-20T19:24:16.422Z,50.63
2018-09-20T19:26:47.493Z,51.48
2018-09-20T19:29:19.784Z,51.13
2018-09-20T19:31:50.715Z,50.88
2018-09-20T19:34:21.364Z,51.75
2018-09-20T19:36:52.310Z,52.25
2018-09-20T19:39:22.698Z,52.32
2018-09-20T19:41:57.708Z,51.96
2018-09-20T19:44:32.678Z,52.61
2018-09-20T19:47:05.319Z,52.71
2018-09-20T19:49:38.625Z,52.17
2018-09-20T19:52:11.009Z,52.73
2018-09-20T19:54:41.948Z,52.50
2018-09-20T19:57:13.858Z,52.85
2018-09-20T19:59:44.797Z,53.03
2018-09-20T20:02:15.708Z,52.73
2018-09-20T20:04:47.900Z,52.81
2018-09-20T20:07:19.499Z,52.96
2018-09-20T20:09:50.502Z,53.24
2018-09-20T20:12:23.570Z,53.55
2018-09-20T20:14:56.346Z,53.64
2018-09-20T20:17:29.105Z,53.18
2018-09-20T20:19:59.596Z,53.52
2018-09-20T20:22:29.725Z,53.52
2018-09-20T20:25:00.200Z,52.97
2018-09-20T20:27:30.576Z,53.71
2018-09-20T20:30:01.102Z,53.76
2018-09-20T20:32:33.932Z,53.43
2018-09-20T20:35:04.659Z,53.67
2018-09-20T20:37:35.834Z,54.26
2018-09-20T20:40:08.177Z,54.19
2018-09-20T20:42:39.058Z,54.49
2018-09-20T20:45:11.159Z,53.75
2018-09-20T20:47:42.299Z,54.09
2018-09-20T20:50:12.758Z,53.61
2018-09-20T20:52:43.985Z,53.93
2018-09-20T20:55:14.589Z,54.08
2018-09-20T20:57:46.058Z,53.81
2018-09-20T21:00:18.577Z,54.28
2018-09-20T21:02:49.707Z,54.72
2018-09-20T21:05:21.502Z,54.47
2018-09-20T21:07:52.664Z,54.85
2018-09-20T21:10:23.407Z,54.66
2018-09-20T21:12:55.436Z,54.49
2018-09-20T21:15:26.889Z,54.26
2018-09-20T21:17:57.966Z,54.22
2018-09-20T21:20:30.396Z,54.98
2018-09-20T21:23:02.499Z,55.01
2018-09-20T21:25:32.890Z,55.16
2018-09-20T21:28:03.565Z,55.10
2018-09-20T21:30:34.685Z,54.77
2018-09-20T21:33:06.664Z,55.30
2018-09-20T21:35:38.299Z,54.56
2018-09-20T21:38:09.644Z,55.15
2018-09-20T21:40:42.079Z,55.19
2018-09-20T21:43:14.947Z,55.61
2018-09-20T21:45:46.169Z,55.80
2018-09-20T21:48:17.035Z,55.73
2018-09-20T21:50:48.124Z,55.61
2018-09-20T21:53:18.506Z,55.69
2018-09-20T21:55:48.990Z,56.07
2018-09-20T21:58:19.273Z,55.76
2018-09-20T22:00:50.856Z,56.77
2018-09-20T22:03:23.936Z,55.90
2018-09-20T22:05:55.429Z,56.44
2018-09-20T22:08:30.404Z,57.00
2018-09-20T22:11:02.605Z,56.61
2018-09-20T22:13:33.656Z,57.30
2018-09-20T22:16:05.154Z,57.33
2018-09-20T22:18:37.718Z,56.96
2018-09-20T22:21:11.538Z,56.80
2018-09-20T22:23:43.514Z,57.34
2018-09-20T22:26:15.448Z,56.85
2018-09-20T22:28:46.366Z,57.67
2018-09-20T22:31:17.049Z,57.70
2018-09-20T22:33:48.148Z,57.62
2018-09-20T22:36:21.845Z,57.82
2018-09-20T22:38:55.807Z,57.74
2018-09-20T22:41:27.210Z,57.14
2018-09-20T22:43:57.603Z,57.74
2018-09-20T22:46:30.842Z,57.22
2018-09-20T22:49:02.890Z,56.55
2018-09-20T22:51:35.254Z,57.16
2018-09-20T22:54:06.025Z,56.89
2018-09-20T22:56:36.664Z,57.94
2018-09-20T22:59:07.250Z,57.26
2018-09-20T23:01:38.109Z,57.63
2018-09-20T23:04:08.420Z,57.61
2018-09-20T23:06:39.139Z,57.40
2018-09-20T23:09:10.941Z,57.40
2018-09-20T23:11:42.018Z,56.18
2018-09-20T23:14:13.565Z,55.90
2018-09-20T23:16:46.398Z,55.96
2018-09-20T23:19:16.532Z,54.48
2018-09-20T23:21:46.375Z,53.87
2018-09-20T23:24:16.688Z,52.53
2018-09-20T23:26:46.927Z,51.84
2018-09-20T23:29:17.968Z,50.97
2018-09-20T23:31:48.452Z,50.14
2018-09-20T23:34:18.941Z,49.42
2018-09-20T23:36:49.081Z,48.09
2018-09-20T23:39:19.823Z,47.55
2018-09-20T23:41:49.919Z,47.65
2018-09-20T23:44:20.016Z,46.97
2018-09-20T23:46:50.359Z,47.13
2018-09-20T23:49:20.523Z,47.15
2018-09-20T23:51:51.603Z,46.81
2018-09-20T23:54:23.496Z,46.42
2018-09-20T23:56:54.329Z,46.05
2018-09-20T23:59:25.703Z,46.42
